Time;durP1;ratioP1;P1;durP2;ratioP2;P2;SDS_P1;SDS_P2;PMS_P1;PMS_P2;Temp;Humidity;BMP_temperature;BMP_pressure;BME280_temperature;BME280_humidity;BME280_pressure;Samples;Min_cycle;Max_cycle;Signal;HPM_P1;HPM_P2
2023/03/03 00:00:11;;;;;;;85.57;36.83;;;1.30;99.90;;;;;;4901453;28;20039;-77
2023/03/03 00:02:36;;;;;;;89.75;46.50;;;1.40;99.90;;;;;;4938482;28;20035;-78
2023/03/03 00:05:02;;;;;;;87.10;37.55;;;1.40;99.90;;;;;;4912580;28;20591;-77
2023/03/03 00:07:27;;;;;;;87.03;36.58;;;1.40;99.90;;;;;;4929104;28;20031;-77
2023/03/03 00:09:53;;;;;;;92.30;42.22;;;1.40;99.90;;;;;;4915251;28;20036;-78
2023/03/03 00:12:26;;;;;;;95.07;41.42;;;1.40;99.90;;;;;;4898232;28;20037;-77
2023/03/03 00:14:52;;;;;;;97.30;39.47;;;1.40;99.90;;;;;;4930787;28;20143;-77
2023/03/03 00:17:25;;;;;;;87.38;41.03;;;1.40;99.90;;;;;;4913092;28;20126;-77
2023/03/03 00:19:51;;;;;;;83.28;36.75;;;1.40;99.90;;;;;;4950990;28;20499;-77
2023/03/03 00:22:29;;;;;;;90.72;38.20;;;1.50;99.90;;;;;;4945828;28;20034;-77
2023/03/03 00:25:18;;;;;;;86.57;38.47;;;1.50;99.90;;;;;;4953274;28;20032;-77
2023/03/03 00:27:44;;;;;;;92.95;46.25;;;1.50;99.90;;;;;;4915509;28;20046;-78
2023/03/03 00:30:30;;;;;;;104.97;45.70;;;1.50;99.90;;;;;;4898348;28;20028;-78
2023/03/03 00:32:55;;;;;;;107.40;47.47;;;1.50;99.90;;;;;;4933169;28;20032;-77
2023/03/03 00:35:24;;;;;;;98.78;40.55;;;1.40;99.90;;;;;;4924191;28;20038;-77
2023/03/03 00:37:55;;;;;;;111.55;47.95;;;1.50;99.90;;;;;;4933926;28;20031;-78
2023/03/03 00:40:24;;;;;;;114.93;45.28;;;1.50;99.90;;;;;;4911209;28;20518;-78
2023/03/03 00:42:52;;;;;;;117.70;50.50;;;1.50;99.90;;;;;;4930260;28;20094;-78
2023/03/03 00:45:26;;;;;;;121.07;53.95;;;1.50;99.90;;;;;;4942498;28;20038;-78
2023/03/03 00:47:51;;;;;;;111.28;47.53;;;1.40;99.90;;;;;;4925778;28;20034;-77
2023/03/03 00:50:20;;;;;;;107.63;46.38;;;1.40;99.90;;;;;;4944825;28;20377;-77
2023/03/03 00:53:02;;;;;;;114.97;46.67;;;1.50;99.90;;;;;;4927082;29;20031;-78
2023/03/03 00:55:28;;;;;;;115.25;48.70;;;1.50;99.90;;;;;;4931362;28;20063;-78
2023/03/03 00:57:54;;;;;;;107.47;46.75;;;1.50;99.90;;;;;;4929044;28;20024;-77
2023/03/03 01:00:19;;;;;;;103.60;44.58;;;1.50;99.90;;;;;;4916478;28;20223;-79
2023/03/03 01:02:47;;;;;;;95.10;40.90;;;1.50;99.90;;;;;;4914348;28;20028;-78
2023/03/03 01:05:13;;;;;;;102.63;42.92;;;1.50;99.90;;;;;;4901120;28;20166;-77
2023/03/03 01:07:39;;;;;;;109.95;50.55;;;1.50;99.90;;;;;;4948724;28;20373;-78
2023/03/03 01:10:05;;;;;;;108.63;47.80;;;1.40;99.90;;;;;;4911724;28;20046;-78
2023/03/03 01:12:30;;;;;;;98.25;45.35;;;1.40;99.90;;;;;;4932755;29;20140;-77
2023/03/03 01:14:56;;;;;;;102.90;52.95;;;1.40;99.90;;;;;;4919626;28;20111;-78
2023/03/03 01:17:21;;;;;;;98.35;42.42;;;1.40;99.90;;;;;;4903775;28;20055;-78
2023/03/03 01:19:47;;;;;;;105.57;43.63;;;1.40;99.90;;;;;;4915296;28;20399;-78
2023/03/03 01:22:13;;;;;;;96.90;42.20;;;1.50;99.90;;;;;;4916246;28;20031;-78
2023/03/03 01:24:38;;;;;;;103.55;44.72;;;1.40;99.90;;;;;;4913749;29;20036;-78
2023/03/03 01:27:04;;;;;;;99.32;49.10;;;1.40;99.90;;;;;;4915003;29;22646;-77
2023/03/03 01:29:29;;;;;;;109.90;44.80;;;1.40;99.90;;;;;;4951810;28;20035;-77
2023/03/03 01:31:55;;;;;;;96.30;40.00;;;1.40;99.90;;;;;;4929036;28;20035;-77
2023/03/03 01:34:20;;;;;;;101.38;41.05;;;1.40;99.90;;;;;;4921514;28;20023;-78
2023/03/03 01:36:46;;;;;;;97.28;38.75;;;1.50;99.90;;;;;;4940444;29;20511;-78
2023/03/03 01:39:11;;;;;;;98.60;39.42;;;1.50;99.90;;;;;;4936860;28;20450;-79
2023/03/03 01:41:37;;;;;;;92.95;39.92;;;1.50;99.90;;;;;;4910639;28;20040;-78
2023/03/03 01:44:03;;;;;;;104.90;42.67;;;1.50;99.90;;;;;;4915951;28;20043;-78
2023/03/03 01:46:31;;;;;;;117.75;43.35;;;1.50;99.90;;;;;;4938273;28;20118;-77
2023/03/03 01:49:01;;;;;;;113.75;44.47;;;1.50;99.90;;;;;;4930075;28;20028;-78
2023/03/03 01:51:32;;;;;;;119.53;46.80;;;1.50;99.90;;;;;;4944216;28;20079;-77
2023/03/03 01:54:03;;;;;;;111.15;42.20;;;1.50;99.90;;;;;;4929408;28;20047;-78
2023/03/03 01:56:28;;;;;;;106.20;41.17;;;1.50;99.90;;;;;;4917727;29;22245;-78
2023/03/03 01:59:02;;;;;;;127.95;49.95;;;1.50;99.90;;;;;;4915070;28;20035;-78
2023/03/03 02:01:28;;;;;;;126.45;49.08;;;1.40;99.90;;;;;;4932512;28;20043;-77
2023/03/03 02:03:54;;;;;;;116.63;47.92;;;1.40;99.90;;;;;;4928390;28;20035;-77
2023/03/03 02:06:25;;;;;;;121.47;50.33;;;1.40;99.90;;;;;;4903440;28;20035;-77
2023/03/03 02:09:11;;;;;;;101.03;40.30;;;1.40;99.90;;;;;;4914931;28;20514;-78
2023/03/03 02:11:37;;;;;;;101.72;42.25;;;1.40;99.90;;;;;;4943803;28;20551;-78
2023/03/03 02:14:03;;;;;;;103.10;42.72;;;1.40;99.90;;;;;;4929165;28;20043;-77
2023/03/03 02:16:29;;;;;;;109.90;45.90;;;1.50;99.90;;;;;;4915342;28;20058;-77
2023/03/03 02:18:55;;;;;;;105.13;41.40;;;1.50;99.90;;;;;;4925258;28;20496;-78
2023/03/03 02:21:22;;;;;;;102.05;39.70;;;1.40;99.90;;;;;;4949457;28;20023;-78
2023/03/03 02:24:08;;;;;;;104.90;43.28;;;1.50;99.90;;;;;;4948380;28;20535;-77
2023/03/03 02:26:36;;;;;;;97.50;39.25;;;1.50;99.90;;;;;;4920745;28;20031;-78
2023/03/03 02:29:02;;;;;;;100.25;39.88;;;1.50;99.90;;;;;;4922743;28;20051;-77
2023/03/03 02:31:28;;;;;;;99.75;42.03;;;1.50;99.90;;;;;;4913588;28;20102;-77
2023/03/03 02:33:54;;;;;;;99.68;39.75;;;1.50;99.90;;;;;;4922314;28;20113;-78
2023/03/03 02:36:24;;;;;;;110.50;43.20;;;1.50;99.90;;;;;;4932531;28;20094;-78
2023/03/03 02:39:18;;;;;;;108.95;44.00;;;1.50;99.90;;;;;;4929158;28;20471;-77
2023/03/03 02:42:00;;;;;;;112.55;45.55;;;1.50;99.90;;;;;;4928787;28;20071;-77
2023/03/03 02:44:27;;;;;;;120.47;45.03;;;1.40;99.90;;;;;;4928406;28;20779;-77
2023/03/03 02:46:53;;;;;;;117.28;47.55;;;1.40;99.90;;;;;;4915382;28;20034;-77
2023/03/03 02:49:25;;;;;;;99.57;42.40;;;1.40;99.90;;;;;;4901434;28;20062;-78
2023/03/03 02:51:51;;;;;;;103.68;39.08;;;1.40;99.90;;;;;;4926729;28;20086;-78
2023/03/03 02:54:18;;;;;;;105.63;41.33;;;1.40;99.90;;;;;;4921408;28;20027;-78
2023/03/03 02:56:43;;;;;;;97.50;39.63;;;1.40;99.90;;;;;;4934803;28;20115;-77
2023/03/03 02:59:09;;;;;;;102.40;39.30;;;1.40;99.90;;;;;;4937098;28;20429;-78
2023/03/03 03:01:37;;;;;;;101.63;39.80;;;1.40;99.90;;;;;;4912254;29;20042;-78
2023/03/03 03:04:11;;;;;;;94.00;34.22;;;1.50;99.90;;;;;;4934010;28;20074;-78
2023/03/03 03:06:37;;;;;;;106.47;39.05;;;1.40;99.90;;;;;;4915373;28;20773;-77
2023/03/03 03:09:03;;;;;;;90.03;36.30;;;1.40;99.90;;;;;;4940919;28;20031;-78
2023/03/03 03:11:29;;;;;;;105.45;43.75;;;1.40;99.90;;;;;;4932075;29;20058;-78
2023/03/03 03:13:54;;;;;;;100.60;40.50;;;1.40;99.90;;;;;;4914737;28;20553;-78
2023/03/03 03:16:20;;;;;;;93.78;36.28;;;1.40;99.90;;;;;;4917321;28;20031;-77
2023/03/03 03:18:46;;;;;;;101.60;38.05;;;1.40;99.90;;;;;;4913716;28;20110;-77
2023/03/03 03:21:12;;;;;;;106.65;45.45;;;1.40;99.90;;;;;;4919403;28;20034;-78
2023/03/03 03:23:38;;;;;;;111.80;42.13;;;1.40;99.90;;;;;;4911048;28;20031;-78
2023/03/03 03:26:04;;;;;;;116.57;45.15;;;1.40;99.90;;;;;;4914881;28;20036;-78
2023/03/03 03:28:29;;;;;;;123.45;48.88;;;1.40;99.90;;;;;;4925484;28;20046;-79
2023/03/03 03:30:55;;;;;;;106.70;40.65;;;1.50;99.90;;;;;;4912714;28;20039;-78
2023/03/03 03:33:21;;;;;;;115.90;42.40;;;1.40;99.90;;;;;;4918776;28;20071;-77
2023/03/03 03:35:47;;;;;;;121.57;45.60;;;1.40;99.90;;;;;;4922456;28;20038;-77
2023/03/03 03:38:12;;;;;;;113.57;40.30;;;1.40;99.90;;;;;;4897665;28;20031;-78
2023/03/03 03:40:38;;;;;;;122.55;42.35;;;1.40;99.90;;;;;;4949218;28;20051;-78
2023/03/03 03:43:04;;;;;;;123.68;45.25;;;1.40;99.90;;;;;;4935129;28;20106;-78
2023/03/03 03:45:29;;;;;;;119.30;42.88;;;1.40;99.90;;;;;;4910703;28;20035;-78
2023/03/03 03:47:55;;;;;;;105.13;40.78;;;1.40;99.90;;;;;;4928888;28;20039;-77
2023/03/03 03:50:20;;;;;;;87.22;33.85;;;1.40;99.90;;;;;;4917460;28;20046;-77
2023/03/03 03:52:46;;;;;;;89.00;32.40;;;1.50;99.90;;;;;;4945414;28;20503;-77
2023/03/03 03:55:12;;;;;;;78.38;31.42;;;1.50;99.90;;;;;;4915131;28;20039;-78
2023/03/03 03:57:37;;;;;;;74.25;29.17;;;1.40;99.90;;;;;;4924702;28;20433;-78
2023/03/03 04:00:07;;;;;;;67.13;28.60;;;1.40;99.90;;;;;;4949273;28;20058;-77
2023/03/03 04:02:33;;;;;;;72.45;29.73;;;1.40;99.90;;;;;;4913715;28;20035;-78
2023/03/03 04:04:59;;;;;;;70.68;28.20;;;1.40;99.90;;;;;;4928729;28;20503;-78
2023/03/03 04:07:24;;;;;;;73.30;29.58;;;1.40;99.90;;;;;;4938559;28;20048;-78
2023/03/03 04:09:50;;;;;;;68.78;26.25;;;1.40;99.90;;;;;;4914653;28;20046;-77
2023/03/03 04:12:16;;;;;;;67.90;25.92;;;1.30;99.90;;;;;;4915133;28;20049;-77
2023/03/03 04:14:41;;;;;;;64.63;25.13;;;1.30;99.90;;;;;;4914184;28;20032;-77
2023/03/03 04:17:07;;;;;;;77.75;29.65;;;1.30;99.90;;;;;;4932489;28;20049;-78
2023/03/03 04:19:32;;;;;;;62.55;24.85;;;1.30;99.90;;;;;;4911067;28;20039;-78
2023/03/03 04:21:58;;;;;;;71.90;25.48;;;1.20;99.90;;;;;;4925364;28;20083;-78
2023/03/03 04:24:23;;;;;;;70.93;30.13;;;1.20;99.90;;;;;;4918667;28;20110;-77
2023/03/03 04:26:49;;;;;;;67.57;26.42;;;1.30;99.90;;;;;;4931162;28;20059;-78
2023/03/03 04:29:15;;;;;;;63.90;26.73;;;1.30;99.90;;;;;;4929917;28;20522;-78
2023/03/03 04:31:40;;;;;;;56.83;22.92;;;1.30;99.90;;;;;;4914754;28;20419;-78
2023/03/03 04:34:06;;;;;;;59.15;24.45;;;1.30;99.90;;;;;;4928551;28;20039;-78
2023/03/03 04:36:31;;;;;;;51.85;23.90;;;1.20;99.90;;;;;;4932198;28;20047;-77
2023/03/03 04:38:57;;;;;;;52.60;25.73;;;1.20;99.90;;;;;;4912641;28;20046;-78
2023/03/03 04:41:22;;;;;;;47.53;21.27;;;1.30;99.90;;;;;;4920087;28;20866;-78
2023/03/03 04:43:48;;;;;;;58.03;22.45;;;1.20;99.90;;;;;;4910437;28;20432;-78
2023/03/03 04:46:14;;;;;;;54.20;21.90;;;1.20;99.90;;;;;;4916679;28;20062;-78
2023/03/03 04:48:39;;;;;;;53.45;22.60;;;1.20;99.90;;;;;;4934187;28;20035;-78
2023/03/03 04:51:07;;;;;;;50.92;21.83;;;1.20;99.90;;;;;;4927781;28;20410;-78
2023/03/03 04:53:33;;;;;;;54.45;24.55;;;1.10;99.90;;;;;;4946188;28;20036;-77
2023/03/03 04:55:58;;;;;;;57.90;25.92;;;1.20;99.90;;;;;;4933755;28;20083;-77
2023/03/03 04:58:24;;;;;;;55.58;22.17;;;1.10;99.90;;;;;;4898787;28;20449;-77
2023/03/03 05:00:53;;;;;;;54.75;23.50;;;1.20;99.90;;;;;;4911012;28;20034;-78
2023/03/03 05:03:19;;;;;;;48.33;21.02;;;1.20;99.90;;;;;;4952759;28;20026;-79
2023/03/03 05:05:45;;;;;;;52.83;20.10;;;1.10;99.90;;;;;;4912556;28;20032;-77
2023/03/03 05:08:11;;;;;;;51.28;23.60;;;1.10;99.90;;;;;;4917942;28;20492;-78
2023/03/03 05:10:37;;;;;;;51.55;25.15;;;1.10;99.90;;;;;;4914860;28;20046;-78
2023/03/03 05:13:03;;;;;;;47.85;19.70;;;1.10;99.90;;;;;;4938907;28;20157;-78
2023/03/03 05:15:29;;;;;;;53.47;22.15;;;1.10;99.90;;;;;;4936618;28;20669;-77
2023/03/03 05:17:55;;;;;;;42.30;18.88;;;1.10;99.90;;;;;;4914461;28;20070;-78
2023/03/03 05:20:22;;;;;;;51.20;23.35;;;1.10;99.90;;;;;;4896251;28;20448;-78
2023/03/03 05:22:47;;;;;;;47.85;18.90;;;1.10;99.90;;;;;;4913188;28;20515;-77
2023/03/03 05:25:13;;;;;;;50.42;20.67;;;1.10;99.90;;;;;;4942598;28;20093;-77
2023/03/03 05:27:39;;;;;;;50.55;22.13;;;1.10;99.90;;;;;;4922671;28;20492;-78
2023/03/03 05:30:05;;;;;;;49.47;19.17;;;1.10;99.90;;;;;;4914213;28;20029;-77
2023/03/03 05:32:31;;;;;;;49.95;22.02;;;1.00;99.90;;;;;;4934546;28;20472;-77
2023/03/03 05:34:56;;;;;;;48.28;20.40;;;1.10;99.90;;;;;;4909680;28;20040;-77
2023/03/03 05:37:23;;;;;;;52.33;22.50;;;1.00;99.90;;;;;;4913232;28;20398;-77
2023/03/03 05:39:48;;;;;;;48.63;21.15;;;1.00;99.90;;;;;;4929140;28;20043;-78
2023/03/03 05:42:17;;;;;;;42.33;18.98;;;1.00;99.90;;;;;;4936312;28;20037;-78
2023/03/03 05:44:42;;;;;;;45.47;22.98;;;1.00;99.90;;;;;;4915437;28;20398;-77
2023/03/03 05:47:08;;;;;;;50.13;21.05;;;1.00;99.90;;;;;;4950554;28;20035;-77
2023/03/03 05:49:34;;;;;;;52.00;22.73;;;1.00;99.90;;;;;;4914881;28;20032;-77
2023/03/03 05:51:59;;;;;;;47.67;20.38;;;1.00;99.90;;;;;;4925327;28;20509;-78
2023/03/03 05:54:25;;;;;;;51.17;21.52;;;1.00;99.90;;;;;;4896930;28;20032;-77
2023/03/03 05:56:51;;;;;;;47.20;19.52;;;1.00;99.90;;;;;;4913302;28;20404;-77
2023/03/03 05:59:16;;;;;;;59.20;23.60;;;1.00;99.90;;;;;;4925259;28;20031;-78
2023/03/03 06:01:42;;;;;;;56.20;23.00;;;1.00;99.90;;;;;;4926517;28;20031;-77
2023/03/03 06:04:07;;;;;;;54.90;20.70;;;1.00;99.90;;;;;;4933200;28;20032;-78
2023/03/03 06:06:33;;;;;;;50.20;20.98;;;1.00;99.90;;;;;;4931942;28;20035;-77
2023/03/03 06:08:58;;;;;;;55.67;26.30;;;1.10;99.90;;;;;;4926028;28;20043;-77
2023/03/03 06:11:24;;;;;;;55.85;21.73;;;1.00;99.90;;;;;;4897191;28;20046;-78
2023/03/03 06:13:50;;;;;;;48.47;18.77;;;0.90;99.90;;;;;;4925787;28;20483;-77
2023/03/03 06:16:15;;;;;;;50.13;22.35;;;1.00;99.90;;;;;;4947318;28;20067;-77
2023/03/03 06:18:41;;;;;;;54.92;21.75;;;1.10;99.90;;;;;;4946665;28;20055;-78
2023/03/03 06:21:07;;;;;;;60.00;27.58;;;1.10;99.90;;;;;;4924749;28;20038;-78
2023/03/03 06:23:32;;;;;;;51.17;21.95;;;1.00;99.90;;;;;;4914871;28;20035;-78
2023/03/03 06:25:58;;;;;;;60.95;24.13;;;1.00;99.90;;;;;;4940854;28;20047;-78
2023/03/03 06:28:23;;;;;;;57.53;22.98;;;1.00;99.90;;;;;;4919479;28;20074;-79
2023/03/03 06:30:53;;;;;;;62.92;23.50;;;1.00;99.90;;;;;;4928546;28;20051;-77
2023/03/03 06:33:19;;;;;;;65.38;25.70;;;1.00;99.90;;;;;;4932798;28;20109;-78
2023/03/03 06:35:51;;;;;;;67.05;24.70;;;1.00;99.90;;;;;;4911400;28;20115;-77
2023/03/03 06:38:16;;;;;;;67.20;25.55;;;1.00;99.90;;;;;;4916091;28;20042;-78
2023/03/03 06:40:42;;;;;;;74.55;28.20;;;1.00;99.90;;;;;;4913847;28;20554;-79
2023/03/03 06:43:08;;;;;;;70.75;25.85;;;1.00;99.90;;;;;;4910052;28;20127;-79
2023/03/03 06:45:38;;;;;;;70.60;29.23;;;1.00;99.90;;;;;;4916660;28;20490;-79
2023/03/03 06:48:03;;;;;;;74.45;27.83;;;1.00;99.90;;;;;;4915802;28;20054;-78
2023/03/03 06:50:29;;;;;;;74.90;25.73;;;1.00;99.90;;;;;;4945796;28;20036;-79
2023/03/03 06:53:14;;;;;;;80.55;28.70;;;1.00;99.90;;;;;;4912252;28;20039;-78
2023/03/03 06:55:43;;;;;;;82.15;28.13;;;1.00;99.90;;;;;;4910833;28;20035;-78
2023/03/03 06:58:19;;;;;;;79.90;28.73;;;1.10;99.90;;;;;;4940209;28;20114;-78
2023/03/03 07:00:53;;;;;;;91.28;31.38;;;1.10;99.90;;;;;;4923613;29;20343;-78
2023/03/03 07:03:45;;;;;;;92.35;33.45;;;1.10;99.90;;;;;;4917810;28;20513;-77
2023/03/03 07:06:25;;;;;;;90.07;28.42;;;1.10;99.90;;;;;;4932171;28;20509;-77
2023/03/03 07:08:51;;;;;;;80.25;27.58;;;1.20;99.90;;;;;;4928392;28;20039;-77
2023/03/03 07:11:19;;;;;;;79.60;28.63;;;1.20;99.90;;;;;;4927298;28;20038;-78
2023/03/03 07:13:54;;;;;;;86.47;29.88;;;1.20;99.90;;;;;;4926596;28;20431;-77
2023/03/03 07:16:25;;;;;;;79.13;27.50;;;1.20;99.90;;;;;;4926599;28;20443;-77
2023/03/03 07:19:00;;;;;;;76.32;26.65;;;1.20;99.90;;;;;;4929892;28;20492;-77
2023/03/03 07:21:35;;;;;;;77.32;25.83;;;1.30;99.90;;;;;;4908407;28;20755;-77
2023/03/03 07:24:17;;;;;;;77.70;26.33;;;1.30;99.90;;;;;;4934073;28;20123;-76
2023/03/03 07:26:46;;;;;;;60.35;24.05;;;1.30;99.90;;;;;;4929687;28;20503;-78
2023/03/03 07:29:21;;;;;;;68.78;25.27;;;1.20;99.90;;;;;;4942033;28;20046;-79
2023/03/03 07:31:47;;;;;;;73.38;26.33;;;1.30;99.90;;;;;;4943157;28;20507;-77
2023/03/03 07:34:19;;;;;;;73.68;27.40;;;1.40;99.90;;;;;;4900585;28;20042;-78
2023/03/03 07:36:44;;;;;;;74.30;27.42;;;1.30;99.90;;;;;;4945574;28;20050;-78
2023/03/03 07:39:33;;;;;;;73.18;28.58;;;1.40;99.90;;;;;;4926962;28;20499;-78
2023/03/03 07:42:22;;;;;;;73.60;26.80;;;1.40;99.90;;;;;;4915515;28;20092;-78
2023/03/03 07:44:51;;;;;;;82.43;28.30;;;1.40;99.90;;;;;;4944340;28;20750;-78
2023/03/03 07:47:30;;;;;;;80.95;27.58;;;1.40;99.90;;;;;;4937092;28;20082;-78
2023/03/03 07:49:58;;;;;;;80.28;26.92;;;1.40;99.90;;;;;;4927907;28;20668;-77
2023/03/03 07:52:41;;;;;;;69.70;25.80;;;1.50;99.90;;;;;;4927382;28;20047;-77
2023/03/03 07:55:36;;;;;;;75.70;28.33;;;1.50;99.90;;;;;;4917924;28;20514;-77
2023/03/03 07:58:22;;;;;;;78.60;26.58;;;1.60;99.90;;;;;;4936849;28;20045;-78
2023/03/03 08:01:24;;;;;;;70.67;23.43;;;1.50;99.90;;;;;;4901636;29;20032;-78
2023/03/03 08:03:50;;;;;;;71.63;25.58;;;1.60;99.90;;;;;;4947096;28;20027;-78
2023/03/03 08:06:33;;;;;;;67.35;23.98;;;1.60;99.90;;;;;;4927125;28;20037;-78
2023/03/03 08:09:11;;;;;;;73.78;24.85;;;1.70;99.90;;;;;;4930668;28;20102;-78
2023/03/03 08:11:48;;;;;;;66.32;25.67;;;1.70;99.90;;;;;;4947420;28;20035;-79
2023/03/03 08:14:15;;;;;;;69.72;26.52;;;1.70;99.90;;;;;;4946325;28;20045;-77
2023/03/03 08:16:41;;;;;;;71.30;28.48;;;1.70;99.90;;;;;;4906994;28;20028;-79
2023/03/03 08:19:06;;;;;;;69.25;28.95;;;1.70;99.90;;;;;;4920073;28;20057;-79
2023/03/03 08:21:33;;;;;;;67.68;26.60;;;1.70;99.90;;;;;;4915635;28;20036;-79
2023/03/03 08:23:58;;;;;;;66.00;23.73;;;1.70;99.90;;;;;;4913292;28;20123;-78
2023/03/03 08:26:24;;;;;;;71.15;25.17;;;1.80;99.90;;;;;;4902774;28;20150;-78
2023/03/03 08:28:50;;;;;;;67.68;24.27;;;1.80;99.90;;;;;;4943377;28;20035;-79
2023/03/03 08:31:18;;;;;;;69.00;23.88;;;1.80;99.90;;;;;;4903007;28;20494;-79
2023/03/03 08:33:44;;;;;;;62.65;23.63;;;1.90;99.90;;;;;;4921360;28;20035;-78
2023/03/03 08:36:10;;;;;;;62.38;22.30;;;1.90;99.90;;;;;;4918527;28;20102;-80
2023/03/03 08:38:36;;;;;;;59.13;24.15;;;1.90;99.90;;;;;;4911868;28;20083;-78
2023/03/03 08:41:02;;;;;;;68.68;24.55;;;1.90;99.90;;;;;;4914102;28;20059;-78
2023/03/03 08:43:28;;;;;;;67.88;26.65;;;2.00;99.90;;;;;;4904234;28;20495;-79
2023/03/03 08:45:59;;;;;;;68.63;24.92;;;2.00;99.90;;;;;;4930157;28;20082;-79
2023/03/03 08:48:25;;;;;;;71.45;27.15;;;2.00;99.90;;;;;;4918847;28;20059;-79
2023/03/03 08:50:51;;;;;;;72.72;24.27;;;2.10;99.90;;;;;;4910074;28;20040;-78
2023/03/03 08:53:17;;;;;;;70.45;25.38;;;2.10;99.90;;;;;;4914247;28;20066;-78
2023/03/03 08:55:43;;;;;;;62.75;23.48;;;2.10;99.90;;;;;;4896983;29;20039;-78
2023/03/03 08:58:08;;;;;;;65.93;25.40;;;2.10;99.90;;;;;;4933723;28;20063;-78
2023/03/03 09:00:34;;;;;;;60.60;24.80;;;2.20;99.90;;;;;;4956261;28;20110;-77
2023/03/03 09:03:00;;;;;;;54.38;21.58;;;2.20;99.90;;;;;;4927543;28;20101;-78
2023/03/03 09:05:25;;;;;;;60.65;23.80;;;2.30;99.90;;;;;;4918074;28;20066;-79
2023/03/03 09:07:52;;;;;;;67.68;25.08;;;2.30;99.90;;;;;;4929432;28;20364;-79
2023/03/03 09:10:26;;;;;;;64.13;23.90;;;2.40;99.90;;;;;;4912218;28;20061;-79
2023/03/03 09:12:52;;;;;;;62.40;24.17;;;2.40;99.90;;;;;;4924516;28;20031;-79
2023/03/03 09:15:19;;;;;;;60.97;22.13;;;2.40;99.90;;;;;;4943244;28;20031;-78
2023/03/03 09:17:45;;;;;;;56.20;21.90;;;2.40;99.90;;;;;;4932630;28;20036;-79
2023/03/03 09:20:22;;;;;;;64.15;22.55;;;3.30;99.90;;;;;;4930436;28;20043;-78
2023/03/03 09:22:49;;;;;;;56.50;23.10;;;2.50;99.90;;;;;;4939952;28;20032;-78
2023/03/03 09:25:34;;;;;;;59.03;22.33;;;2.60;99.90;;;;;;4933408;28;20031;-79
2023/03/03 09:28:01;;;;;;;58.13;22.77;;;2.60;99.90;;;;;;4931034;28;20034;-78
2023/03/03 09:30:39;;;;;;;55.72;21.92;;;2.70;99.90;;;;;;4930739;28;20050;-78
2023/03/03 09:33:24;;;;;;;59.42;21.77;;;2.70;99.90;;;;;;4913761;28;20454;-78
2023/03/03 09:36:25;;;;;;;56.92;21.48;;;2.80;99.90;;;;;;4933299;28;20031;-77
2023/03/03 09:38:51;;;;;;;59.40;21.75;;;2.80;99.90;;;;;;4926897;28;20506;-78
2023/03/03 09:41:31;;;;;;;59.30;22.15;;;2.90;99.90;;;;;;4915763;28;20042;-78
2023/03/03 09:44:21;;;;;;;59.10;20.50;;;2.90;99.90;;;;;;4952189;28;20508;-78
2023/03/03 09:47:12;;;;;;;54.95;21.20;;;3.00;99.90;;;;;;4943100;28;20062;-79
2023/03/03 09:49:51;;;;;;;61.92;19.33;;;3.10;99.90;;;;;;4927559;28;20027;-78
2023/03/03 09:52:34;;;;;;;53.88;19.98;;;3.10;99.90;;;;;;4940092;28;20534;-77
2023/03/03 09:55:03;;;;;;;50.65;20.02;;;3.20;99.90;;;;;;4946212;28;20032;-78
2023/03/03 09:57:38;;;;;;;56.00;18.80;;;3.30;99.90;;;;;;4946058;28;20499;-78
2023/03/03 10:00:21;;;;;;;46.28;18.98;;;3.40;99.90;;;;;;4928506;28;20407;-78
2023/03/03 10:03:11;;;;;;;53.20;18.73;;;3.40;99.90;;;;;;4927726;28;20044;-77
2023/03/03 10:06:12;;;;;;;51.35;20.60;;;3.40;99.90;;;;;;4935902;28;20047;-78
2023/03/03 10:08:52;;;;;;;48.47;18.67;;;3.50;99.90;;;;;;4933682;28;20093;-78
2023/03/03 10:11:28;;;;;;;59.90;23.08;;;3.60;99.90;;;;;;4929019;28;20400;-77
2023/03/03 10:14:09;;;;;;;49.00;19.40;;;3.60;99.90;;;;;;4915296;28;20055;-78
2023/03/03 10:16:48;;;;;;;53.08;22.15;;;3.70;99.90;;;;;;4939372;28;20562;-80
2023/03/03 10:19:31;;;;;;;62.28;25.08;;;3.80;99.90;;;;;;4912119;28;20479;-79
2023/03/03 10:22:17;;;;;;;63.30;22.85;;;3.80;99.90;;;;;;4943522;28;20561;-77
2023/03/03 10:25:09;;;;;;;56.17;19.17;;;3.80;99.90;;;;;;4939925;28;20056;-77
2023/03/03 10:27:56;;;;;;;57.63;21.95;;;3.80;99.90;;;;;;4926460;28;20055;-79
2023/03/03 10:30:53;;;;;;;55.25;20.20;;;3.80;99.90;;;;;;4934539;28;20379;-78
2023/03/03 10:33:32;;;;;;;60.55;22.10;;;3.90;99.90;;;;;;4929118;28;20621;-78
2023/03/03 10:36:31;;;;;;;46.53;18.55;;;4.00;99.90;;;;;;4906951;28;20036;-79
2023/03/03 10:38:59;;;;;;;60.30;18.98;;;4.10;99.90;;;;;;4922836;28;20110;-78
2023/03/03 10:41:48;;;;;;;56.40;20.10;;;4.20;99.90;;;;;;4949345;28;20060;-78
2023/03/03 10:44:26;;;;;;;49.25;19.40;;;4.30;99.90;;;;;;4921043;28;20513;-78
2023/03/03 10:47:04;;;;;;;52.28;19.45;;;4.40;99.90;;;;;;4931042;28;20395;-79
2023/03/03 10:49:55;;;;;;;45.10;16.67;;;4.50;99.90;;;;;;4915780;29;20031;-79
2023/03/03 10:52:31;;;;;;;44.22;17.27;;;4.50;99.90;;;;;;4928500;28;20038;-78
2023/03/03 10:55:14;;;;;;;44.75;18.70;;;4.60;99.90;;;;;;4937700;28;20122;-78
2023/03/03 10:57:57;;;;;;;48.00;18.02;;;4.70;99.90;;;;;;4917317;28;20070;-77
2023/03/03 11:00:40;;;;;;;45.45;17.38;;;4.80;99.90;;;;;;4930494;28;20046;-80
2023/03/03 11:03:27;;;;;;;41.35;14.88;;;4.90;99.90;;;;;;4942654;28;20109;-77
2023/03/03 11:06:49;;;;;;;47.05;17.02;;;5.00;99.90;;;;;;4939051;28;20083;-79
2023/03/03 11:09:34;;;;;;;45.70;15.82;;;5.10;99.90;;;;;;4883153;29;20385;-79
2023/03/03 11:12:22;;;;;;;44.42;16.45;;;5.10;99.90;;;;;;4869153;29;20048;-78
2023/03/03 11:14:57;;;;;;;47.58;17.73;;;5.20;99.90;;;;;;4929221;28;20027;-77
2023/03/03 11:17:34;;;;;;;49.33;17.58;;;5.20;99.90;;;;;;4943309;28;20086;-79
2023/03/03 11:20:19;;;;;;;50.80;18.42;;;5.20;99.90;;;;;;4937023;28;20495;-78
2023/03/03 11:22:54;;;;;;;49.03;18.92;;;5.40;99.90;;;;;;4935655;28;20034;-78
2023/03/03 11:25:38;;;;;;;48.13;18.85;;;5.40;99.90;;;;;;4943860;28;20495;-78
2023/03/03 11:28:25;;;;;;;44.55;17.00;;;5.50;99.90;;;;;;4939836;28;20053;-78
2023/03/03 11:31:08;;;;;;;45.35;17.08;;;5.60;99.90;;;;;;4943292;28;20149;-78
2023/03/03 11:34:12;;;;;;;50.10;19.25;;;5.60;99.90;;;;;;4937337;28;20063;-78
2023/03/03 11:36:42;;;;;;;48.85;18.70;;;5.70;99.90;;;;;;4893450;29;20373;-79
2023/03/03 11:39:09;;;;;;;41.40;16.75;;;5.70;99.90;;;;;;4909344;28;20033;-79
2023/03/03 11:42:12;;;;;;;41.90;16.75;;;5.80;99.90;;;;;;4924307;28;21083;-78
2023/03/03 11:44:40;;;;;;;47.80;17.75;;;5.80;99.90;;;;;;4938807;28;20409;-78
2023/03/03 11:47:09;;;;;;;50.10;18.83;;;5.90;99.90;;;;;;4925457;28;20031;-77
2023/03/03 11:49:47;;;;;;;46.30;19.02;;;6.00;99.90;;;;;;4939216;28;20488;-77
2023/03/03 11:52:39;;;;;;;39.17;13.82;;;6.20;99.90;;;;;;4916334;28;20035;-77
2023/03/03 11:55:10;;;;;;;47.45;20.05;;;6.30;99.90;;;;;;4917560;28;20027;-77
2023/03/03 11:57:59;;;;;;;49.67;16.98;;;6.40;99.90;;;;;;4945269;28;20514;-78
2023/03/03 12:00:40;;;;;;;46.95;17.80;;;6.50;99.90;;;;;;4923449;28;20082;-78
2023/03/03 12:03:30;;;;;;;53.70;16.77;;;6.60;99.90;;;;;;4927243;28;20042;-78
2023/03/03 12:06:20;;;;;;;49.10;18.48;;;6.70;99.90;;;;;;4948481;28;20431;-78
2023/03/03 12:09:15;;;;;;;59.85;20.40;;;6.80;99.90;;;;;;4942860;28;20031;-78
2023/03/03 12:11:49;;;;;;;51.42;19.08;;;6.90;99.90;;;;;;4922472;28;20441;-77
2023/03/03 12:14:36;;;;;;;47.40;18.77;;;7.00;99.90;;;;;;4947491;28;20042;-79
2023/03/03 12:17:13;;;;;;;53.03;19.65;;;7.00;99.90;;;;;;4945023;28;20392;-77
2023/03/03 12:19:44;;;;;;;48.55;18.17;;;7.10;99.90;;;;;;4926324;28;20083;-77
2023/03/03 12:22:19;;;;;;;45.83;17.95;;;7.20;99.90;;;;;;4951927;28;20082;-78
2023/03/03 12:24:55;;;;;;;49.45;18.77;;;7.20;99.90;;;;;;4955674;28;20567;-78
2023/03/03 12:27:59;;;;;;;55.38;19.20;;;7.30;99.90;;;;;;4930118;28;20057;-78
2023/03/03 12:30:32;;;;;;;42.60;16.13;;;7.40;99.90;;;;;;4932765;28;20490;-79
2023/03/03 12:33:17;;;;;;;57.95;18.10;;;7.40;99.90;;;;;;4926832;28;20039;-79
2023/03/03 12:36:13;;;;;;;52.97;20.00;;;7.50;99.90;;;;;;4942851;28;20053;-78
2023/03/03 12:38:53;;;;;;;50.45;18.00;;;7.60;99.90;;;;;;4927791;28;20063;-79
2023/03/03 12:41:44;;;;;;;46.65;18.05;;;7.80;99.90;;;;;;4933505;28;20117;-78
2023/03/03 12:44:30;;;;;;;44.70;17.60;;;7.80;99.90;;;;;;4889721;28;20034;-78
2023/03/03 12:47:00;;;;;;;;;;;7.90;99.90;;;;;;4927951;28;20039;-78
2023/03/03 12:49:52;;;;;;;44.40;16.23;;;8.00;99.90;;;;;;4937805;28;19941;-79
2023/03/03 12:52:34;;;;;;;46.22;18.17;;;8.10;99.90;;;;;;4909591;28;20047;-79
2023/03/03 12:55:17;;;;;;;48.22;17.40;;;8.20;99.90;;;;;;4922078;28;20048;-79
2023/03/03 12:57:53;;;;;;;54.72;19.90;;;8.10;99.90;;;;;;4951590;28;20035;-79
2023/03/03 13:00:23;;;;;;;52.70;21.33;;;8.30;99.90;;;;;;4951808;28;20042;-79